Jiangmen, China
Current Conditions -  °F | °C
As of 12:30 PM on Sunday 26 Oct 2014 (Local Time) from VMMC Reporting Station
Scattered Clouds Scattered Clouds  
Wind Chill: 82°   Ceiling: Unl
Heat Index: 87°   Visibility: 5mi
Dew Point: 72°   Wind: 5mph
Humidity: 70%   Direction: 20°NNE
Pressure: 30.03"   Gusts: NA
Location:  22.58°N, 113.08°E
Report Text: VMMC 260430Z 02004KT 340V070 8000 FEW020 SCT040 28/22 Q1017 NOSIG
Loading
Personal Weather Stations






























Interactive Weather Map
Tropical Storm Tracking
New forecast layout! Learn more

10-Day Weather Forecast

Advertisements
Track Severe Weather on mobile